sensor_id;sensor_type;location;lat;lon;timestamp;pressure;altitude;pressure_sealevel;temperature;humidity
13709;BME280;54933;51.908;7.730;2022-08-30T00:00:25;101466.78;;;23.33;72.21
13709;BME280;54933;51.908;7.730;2022-08-30T00:03:11;101465.97;;;23.32;72.50
13709;BME280;54933;51.908;7.730;2022-08-30T00:05:39;101462.63;;;23.30;72.14
13709;BME280;54933;51.908;7.730;2022-08-30T00:08:04;101471.38;;;23.26;72.23
13709;BME280;54933;51.908;7.730;2022-08-30T00:10:30;101467.22;;;23.23;72.56
13709;BME280;54933;51.908;7.730;2022-08-30T00:12:56;101465.09;;;23.25;72.45
13709;BME280;54933;51.908;7.730;2022-08-30T00:15:23;101468.03;;;23.24;72.44
13709;BME280;54933;51.908;7.730;2022-08-30T00:17:48;101464.69;;;23.22;72.23
13709;BME280;54933;51.908;7.730;2022-08-30T00:20:17;101475.97;;;23.19;72.80
13709;BME280;54933;51.908;7.730;2022-08-30T00:22:43;101467.03;;;23.18;72.73
13709;BME280;54933;51.908;7.730;2022-08-30T00:25:10;101467.03;;;23.18;72.58
13709;BME280;54933;51.908;7.730;2022-08-30T00:27:37;101462.00;;;23.15;72.64
13709;BME280;54933;51.908;7.730;2022-08-30T00:30:04;101461.59;;;23.18;72.60
13709;BME280;54933;51.908;7.730;2022-08-30T00:32:30;101453.06;;;23.15;72.60
13709;BME280;54933;51.908;7.730;2022-08-30T00:34:55;101466.63;;;23.15;72.54
13709;BME280;54933;51.908;7.730;2022-08-30T00:37:20;101456.41;;;23.17;72.60
13709;BME280;54933;51.908;7.730;2022-08-30T00:39:46;101453.69;;;23.17;72.44
13709;BME280;54933;51.908;7.730;2022-08-30T00:42:13;101448.06;;;23.18;72.69
13709;BME280;54933;51.908;7.730;2022-08-30T00:44:40;101448.47;;;23.15;72.42
13709;BME280;54933;51.908;7.730;2022-08-30T00:47:06;101448.09;;;23.12;72.83
13709;BME280;54933;51.908;7.730;2022-08-30T00:49:32;101450.59;;;23.07;72.65
13709;BME280;54933;51.908;7.730;2022-08-30T00:51:59;101456.81;;;23.07;72.91
13709;BME280;54933;51.908;7.730;2022-08-30T00:54:25;101453.91;;;23.09;72.90
13709;BME280;54933;51.908;7.730;2022-08-30T00:56:51;101457.03;;;23.12;72.87
13709;BME280;54933;51.908;7.730;2022-08-30T00:59:18;101446.41;;;23.11;72.66
13709;BME280;54933;51.908;7.730;2022-08-30T01:01:44;101443.91;;;23.09;72.75
13709;BME280;54933;51.908;7.730;2022-08-30T01:04:10;101451.41;;;23.07;72.66
13709;BME280;54933;51.908;7.730;2022-08-30T01:06:38;101451.84;;;23.04;72.57
13709;BME280;54933;51.908;7.730;2022-08-30T01:09:04;101456.03;;;23.00;73.14
13709;BME280;54933;51.908;7.730;2022-08-30T01:11:32;101455.59;;;23.03;72.93
13709;BME280;54933;51.908;7.730;2022-08-30T01:13:59;101458.94;;;23.05;73.14
13709;BME280;54933;51.908;7.730;2022-08-30T01:16:25;101452.28;;;23.01;72.92
13709;BME280;54933;51.908;7.730;2022-08-30T01:18:52;101461.03;;;23.03;72.87
13709;BME280;54933;51.908;7.730;2022-08-30T01:21:33;101466.25;;;22.98;72.90
13709;BME280;54933;51.908;7.730;2022-08-30T01:24:01;101466.03;;;23.00;72.66
13709;BME280;54933;51.908;7.730;2022-08-30T01:26:28;101463.53;;;23.05;72.88
13709;BME280;54933;51.908;7.730;2022-08-30T01:28:58;101463.97;;;23.02;73.20
13709;BME280;54933;51.908;7.730;2022-08-30T01:31:26;101461.00;;;23.10;73.20
13709;BME280;54933;51.908;7.730;2022-08-30T01:33:52;101463.09;;;23.08;73.19
13709;BME280;54933;51.908;7.730;2022-08-30T01:36:19;101461.84;;;23.10;73.00
13709;BME280;54933;51.908;7.730;2022-08-30T01:38:50;101458.09;;;23.11;72.80
13709;BME280;54933;51.908;7.730;2022-08-30T01:41:25;101458.94;;;23.12;72.49
13709;BME280;54933;51.908;7.730;2022-08-30T01:43:54;101473.72;;;23.09;72.77
13709;BME280;54933;51.908;7.730;2022-08-30T01:46:21;101463.50;;;23.11;72.76
13709;BME280;54933;51.908;7.730;2022-08-30T01:48:48;101475.78;;;23.14;72.55
13709;BME280;54933;51.908;7.730;2022-08-30T01:51:14;101458.09;;;23.11;72.24
13709;BME280;54933;51.908;7.730;2022-08-30T01:53:42;101469.34;;;23.08;72.54
13709;BME280;54933;51.908;7.730;2022-08-30T01:56:08;101476.88;;;23.06;72.67
13709;BME280;54933;51.908;7.730;2022-08-30T01:58:34;101476.44;;;23.09;72.79
13709;BME280;54933;51.908;7.730;2022-08-30T02:01:03;101473.72;;;23.09;72.74
13709;BME280;54933;51.908;7.730;2022-08-30T02:03:29;101474.59;;;23.03;72.76
13709;BME280;54933;51.908;7.730;2022-08-30T02:06:04;101477.72;;;23.00;72.59
13709;BME280;54933;51.908;7.730;2022-08-30T02:08:29;101467.31;;;22.97;73.17
13709;BME280;54933;51.908;7.730;2022-08-30T02:10:55;101470.03;;;22.97;72.63
13709;BME280;54933;51.908;7.730;2022-08-30T02:13:22;101480.25;;;22.95;72.78
13709;BME280;54933;51.908;7.730;2022-08-30T02:15:47;101470.41;;;23.01;73.02
13709;BME280;54933;51.908;7.730;2022-08-30T02:18:12;101470.84;;;22.98;72.74
13709;BME280;54933;51.908;7.730;2022-08-30T02:20:38;101479.19;;;22.96;73.02
13709;BME280;54933;51.908;7.730;2022-08-30T02:23:03;101479.19;;;22.96;72.67
13709;BME280;54933;51.908;7.730;2022-08-30T02:25:29;101476.28;;;22.91;72.85
13709;BME280;54933;51.908;7.730;2022-08-30T02:27:54;101480.66;;;22.92;72.96
13709;BME280;54933;51.908;7.730;2022-08-30T02:30:19;101484.41;;;22.91;72.96
13709;BME280;54933;51.908;7.730;2022-08-30T02:32:45;101478.78;;;22.93;73.12
13709;BME280;54933;51.908;7.730;2022-08-30T02:35:10;101481.47;;;22.93;73.01
13709;BME280;54933;51.908;7.730;2022-08-30T02:37:35;101479.59;;;22.93;72.79
13709;BME280;54933;51.908;7.730;2022-08-30T02:40:01;101484.41;;;22.91;73.18
13709;BME280;54933;51.908;7.730;2022-08-30T02:42:26;101486.09;;;22.92;72.95
13709;BME280;54933;51.908;7.730;2022-08-30T02:44:51;101487.75;;;22.93;72.91
13709;BME280;54933;51.908;7.730;2022-08-30T02:47:17;101480.03;;;22.90;72.78
13709;BME280;54933;51.908;7.730;2022-08-30T02:49:42;101477.75;;;22.87;72.86
13709;BME280;54933;51.908;7.730;2022-08-30T02:52:07;101476.06;;;22.86;73.00
13709;BME280;54933;51.908;7.730;2022-08-30T02:54:33;101480.28;;;22.82;72.86
13709;BME280;54933;51.908;7.730;2022-08-30T02:56:58;101478.19;;;22.77;72.99
13709;BME280;54933;51.908;7.730;2022-08-30T02:59:28;101469.84;;;22.79;73.24
13709;BME280;54933;51.908;7.730;2022-08-30T03:01:54;101465.47;;;22.71;72.95
13709;BME280;54933;51.908;7.730;2022-08-30T03:04:20;101475.28;;;22.72;73.04
13709;BME280;54933;51.908;7.730;2022-08-30T03:06:45;101468.16;;;22.78;73.41
13709;BME280;54933;51.908;7.730;2022-08-30T03:09:10;101461.50;;;22.80;73.26
13709;BME280;54933;51.908;7.730;2022-08-30T03:11:35;101470.25;;;22.82;72.95
13709;BME280;54933;51.908;7.730;2022-08-30T03:14:02;101462.31;;;22.81;72.98
13709;BME280;54933;51.908;7.730;2022-08-30T03:16:27;101464.41;;;22.86;73.51
13709;BME280;54933;51.908;7.730;2022-08-30T03:18:53;101461.50;;;22.87;73.13
13709;BME280;54933;51.908;7.730;2022-08-30T03:21:18;101455.66;;;22.83;72.92
13709;BME280;54933;51.908;7.730;2022-08-30T03:23:44;101456.91;;;22.81;73.03
13709;BME280;54933;51.908;7.730;2022-08-30T03:26:09;101461.31;;;22.82;72.91
13709;BME280;54933;51.908;7.730;2022-08-30T03:28:37;101465.66;;;22.83;73.02
13709;BME280;54933;51.908;7.730;2022-08-30T03:31:02;101459.41;;;22.82;72.99
13709;BME280;54933;51.908;7.730;2022-08-30T03:33:27;101460.00;;;22.91;73.08
13709;BME280;54933;51.908;7.730;2022-08-30T03:35:53;101469.84;;;22.86;73.04
13709;BME280;54933;51.908;7.730;2022-08-30T03:38:18;101466.69;;;22.89;72.90
13709;BME280;54933;51.908;7.730;2022-08-30T03:40:43;101457.50;;;22.90;72.94
13709;BME280;54933;51.908;7.730;2022-08-30T03:43:09;101454.81;;;22.83;73.07
13709;BME280;54933;51.908;7.730;2022-08-30T03:45:35;101454.63;;;22.78;72.67
13709;BME280;54933;51.908;7.730;2022-08-30T03:48:00;101452.75;;;22.85;72.99
13709;BME280;54933;51.908;7.730;2022-08-30T03:50:28;101448.19;;;22.79;73.05
13709;BME280;54933;51.908;7.730;2022-08-30T03:52:54;101452.75;;;22.78;73.17
13709;BME280;54933;51.908;7.730;2022-08-30T03:55:20;101452.75;;;22.85;72.93
13709;BME280;54933;51.908;7.730;2022-08-30T03:57:45;101450.25;;;22.77;72.64
13709;BME280;54933;51.908;7.730;2022-08-30T04:00:12;101461.53;;;22.74;72.71
13709;BME280;54933;51.908;7.730;2022-08-30T04:02:38;101461.50;;;22.80;72.95
13709;BME280;54933;51.908;7.730;2022-08-30T04:05:04;101456.91;;;22.81;73.19
13709;BME280;54933;51.908;7.730;2022-08-30T04:07:29;101460.25;;;22.83;73.06
13709;BME280;54933;51.908;7.730;2022-08-30T04:09:55;101452.31;;;22.88;73.24
13709;BME280;54933;51.908;7.730;2022-08-30T04:12:20;101452.31;;;22.88;73.31
13709;BME280;54933;51.908;7.730;2022-08-30T04:14:45;101462.31;;;22.88;72.95
13709;BME280;54933;51.908;7.730;2022-08-30T04:17:10;101456.28;;;22.86;72.92
13709;BME280;54933;51.908;7.730;2022-08-30T04:19:36;101456.31;;;22.79;73.27
13709;BME280;54933;51.908;7.730;2022-08-30T04:22:01;101459.41;;;22.76;72.93
13709;BME280;54933;51.908;7.730;2022-08-30T04:24:26;101462.56;;;22.73;73.08
13709;BME280;54933;51.908;7.730;2022-08-30T04:26:52;101466.75;;;22.69;72.79
13709;BME280;54933;51.908;7.730;2022-08-30T04:29:17;101470.69;;;22.66;73.10
13709;BME280;54933;51.908;7.730;2022-08-30T04:31:43;101466.97;;;22.67;72.80
13709;BME280;54933;51.908;7.730;2022-08-30T04:34:10;101475.28;;;22.66;72.73
13709;BME280;54933;51.908;7.730;2022-08-30T04:36:35;101474.44;;;22.65;73.07
13709;BME280;54933;51.908;7.730;2022-08-30T04:39:01;101489.44;;;22.61;72.67
13709;BME280;54933;51.908;7.730;2022-08-30T04:41:26;101481.53;;;22.60;73.03
13709;BME280;54933;51.908;7.730;2022-08-30T04:43:51;101491.34;;;22.61;72.53
13709;BME280;54933;51.908;7.730;2022-08-30T04:46:18;101488.00;;;22.59;72.73
13709;BME280;54933;51.908;7.730;2022-08-30T04:48:43;101488.63;;;22.61;72.53
13709;BME280;54933;51.908;7.730;2022-08-30T04:51:12;101493.22;;;22.54;72.67
13709;BME280;54933;51.908;7.730;2022-08-30T04:53:39;101493.19;;;22.47;72.41
13709;BME280;54933;51.908;7.730;2022-08-30T04:56:12;101503.19;;;22.47;72.38
13709;BME280;54933;51.908;7.730;2022-08-30T04:58:41;101500.25;;;22.42;72.60
13709;BME280;54933;51.908;7.730;2022-08-30T05:01:11;101500.03;;;22.37;72.64
13709;BME280;54933;51.908;7.730;2022-08-30T05:03:37;101502.06;;;21.83;72.92
13709;BME280;54933;51.908;7.730;2022-08-30T05:06:02;101497.75;;;22.08;73.31
13709;BME280;54933;51.908;7.730;2022-08-30T05:08:27;101504.00;;;22.28;73.24
13709;BME280;54933;51.908;7.730;2022-08-30T05:10:53;101505.47;;;22.37;73.06
13709;BME280;54933;51.908;7.730;2022-08-30T05:13:19;101496.53;;;22.36;72.79
13709;BME280;54933;51.908;7.730;2022-08-30T05:15:45;101496.53;;;22.49;72.71
13709;BME280;54933;51.908;7.730;2022-08-30T05:18:11;101501.56;;;22.59;72.55
13709;BME280;54933;51.908;7.730;2022-08-30T05:20:37;101506.97;;;22.59;72.44
13709;BME280;54933;51.908;7.730;2022-08-30T05:23:03;101504.03;;;22.67;72.37
13709;BME280;54933;51.908;7.730;2022-08-30T05:25:31;101507.38;;;22.69;72.22
13709;BME280;54933;51.908;7.730;2022-08-30T05:27:57;101506.75;;;22.67;72.00
13709;BME280;54933;51.908;7.730;2022-08-30T05:30:24;101498.63;;;22.73;72.18
13709;BME280;54933;51.908;7.730;2022-08-30T05:32:50;101513.22;;;22.79;72.32
13709;BME280;54933;51.908;7.730;2022-08-30T05:35:16;101504.88;;;22.80;72.25
13709;BME280;54933;51.908;7.730;2022-08-30T05:37:43;101501.53;;;22.85;72.33
13709;BME280;54933;51.908;7.730;2022-08-30T05:40:10;101503.81;;;22.81;72.60
13709;BME280;54933;51.908;7.730;2022-08-30T05:42:35;101504.66;;;22.82;72.64
13709;BME280;54933;51.908;7.730;2022-08-30T05:45:01;101500.03;;;22.82;72.71
13709;BME280;54933;51.908;7.730;2022-08-30T05:47:28;101503.81;;;22.88;72.53
13709;BME280;54933;51.908;7.730;2022-08-30T05:49:53;101505.06;;;22.92;72.63
13709;BME280;54933;51.908;7.730;2022-08-30T05:52:18;101509.22;;;22.95;72.67
13709;BME280;54933;51.908;7.730;2022-08-30T05:54:44;101511.91;;;22.95;72.87
13709;BME280;54933;51.908;7.730;2022-08-30T05:57:10;101509.84;;;22.90;72.78
13709;BME280;54933;51.908;7.730;2022-08-30T05:59:36;101512.97;;;22.94;72.93
13709;BME280;54933;51.908;7.730;2022-08-30T06:02:02;101512.13;;;22.93;72.80
13709;BME280;54933;51.908;7.730;2022-08-30T06:04:27;101519.41;;;22.93;72.84
13709;BME280;54933;51.908;7.730;2022-08-30T06:06:53;101514.00;;;22.99;73.05
13709;BME280;54933;51.908;7.730;2022-08-30T06:09:18;101514.84;;;23.00;73.16
13709;BME280;54933;51.908;7.730;2022-08-30T06:11:44;101511.47;;;23.04;73.39
13709;BME280;54933;51.908;7.730;2022-08-30T06:14:10;101520.25;;;23.00;72.95
13709;BME280;54933;51.908;7.730;2022-08-30T06:16:37;101518.38;;;23.00;73.21
13709;BME280;54933;51.908;7.730;2022-08-30T06:19:03;101518.81;;;23.04;73.06
13709;BME280;54933;51.908;7.730;2022-08-30T06:21:31;101518.59;;;23.05;73.20
13709;BME280;54933;51.908;7.730;2022-08-30T06:23:59;101531.72;;;23.08;73.01
13709;BME280;54933;51.908;7.730;2022-08-30T06:26:25;101525.84;;;23.11;73.05
13709;BME280;54933;51.908;7.730;2022-08-30T06:28:51;101524.81;;;23.12;73.37
13709;BME280;54933;51.908;7.730;2022-08-30T06:31:18;101519.38;;;23.12;73.17
13709;BME280;54933;51.908;7.730;2022-08-30T06:33:44;101521.66;;;23.15;73.19
13709;BME280;54933;51.908;7.730;2022-08-30T06:36:13;101529.78;;;23.15;73.40
13709;BME280;54933;51.908;7.730;2022-08-30T06:38:39;101532.72;;;23.20;72.93
13709;BME280;54933;51.908;7.730;2022-08-30T06:41:09;101541.06;;;23.19;73.36
13709;BME280;54933;51.908;7.730;2022-08-30T06:43:35;101536.91;;;23.16;73.02
13709;BME280;54933;51.908;7.730;2022-08-30T06:46:06;101540.03;;;23.20;73.14
13709;BME280;54933;51.908;7.730;2022-08-30T06:48:31;101537.31;;;23.20;73.34
13709;BME280;54933;51.908;7.730;2022-08-30T06:50:57;101540.03;;;23.20;73.16
13709;BME280;54933;51.908;7.730;2022-08-30T06:53:23;101534.59;;;23.20;73.11
13709;BME280;54933;51.908;7.730;2022-08-30T06:56:07;101539.81;;;23.21;73.30
13709;BME280;54933;51.908;7.730;2022-08-30T06:58:35;101537.09;;;23.21;73.12
13709;BME280;54933;51.908;7.730;2022-08-30T07:01:01;101541.25;;;23.24;73.09
13709;BME280;54933;51.908;7.730;2022-08-30T07:03:26;101540.22;;;23.25;73.18
13709;BME280;54933;51.908;7.730;2022-08-30T07:05:53;101548.56;;;23.23;73.21
13709;BME280;54933;51.908;7.730;2022-08-30T07:08:19;101538.13;;;23.27;73.19
13709;BME280;54933;51.908;7.730;2022-08-30T07:10:46;101543.56;;;23.27;73.15
13709;BME280;54933;51.908;7.730;2022-08-30T07:13:12;101537.34;;;23.26;72.87
13709;BME280;54933;51.908;7.730;2022-08-30T07:15:43;101545.25;;;23.28;73.18
13709;BME280;54933;51.908;7.730;2022-08-30T07:18:11;101541.47;;;23.29;73.00
13709;BME280;54933;51.908;7.730;2022-08-30T07:20:56;101552.53;;;23.27;73.05
13709;BME280;54933;51.908;7.730;2022-08-30T07:23:22;101548.78;;;23.28;72.44
13709;BME280;54933;51.908;7.730;2022-08-30T07:25:47;101539.63;;;23.29;72.67
13709;BME280;54933;51.908;7.730;2022-08-30T07:28:13;101542.31;;;23.29;72.86
13709;BME280;54933;51.908;7.730;2022-08-30T07:30:39;101542.31;;;23.29;72.77
13709;BME280;54933;51.908;7.730;2022-08-30T07:33:05;101544.59;;;23.32;72.70
13709;BME280;54933;51.908;7.730;2022-08-30T07:35:31;101549.41;;;23.30;72.61
13709;BME280;54933;51.908;7.730;2022-08-30T07:37:56;101549.41;;;23.30;72.69
13709;BME280;54933;51.908;7.730;2022-08-30T07:40:22;101546.47;;;23.32;72.56
13709;BME280;54933;51.908;7.730;2022-08-30T07:42:47;101544.59;;;23.32;72.56
13709;BME280;54933;51.908;7.730;2022-08-30T07:45:13;101546.47;;;23.32;72.50
13709;BME280;54933;51.908;7.730;2022-08-30T07:47:38;101543.53;;;23.33;72.63
13709;BME280;54933;51.908;7.730;2022-08-30T07:50:05;101550.66;;;23.34;72.63
13709;BME280;54933;51.908;7.730;2022-08-30T07:52:31;101548.16;;;23.33;72.22
13709;BME280;54933;51.908;7.730;2022-08-30T07:54:57;101545.22;;;23.34;72.35
13709;BME280;54933;51.908;7.730;2022-08-30T07:57:23;101548.97;;;23.33;72.45
13709;BME280;54933;51.908;7.730;2022-08-30T07:59:49;101545.22;;;23.34;72.11
13709;BME280;54933;51.908;7.730;2022-08-30T08:02:15;101541.47;;;23.35;72.19
13709;BME280;54933;51.908;7.730;2022-08-30T08:04:40;101547.72;;;23.36;72.36
13709;BME280;54933;51.908;7.730;2022-08-30T08:07:05;101548.56;;;23.36;72.28
13709;BME280;54933;51.908;7.730;2022-08-30T08:09:31;101549.16;;;23.38;72.11
13709;BME280;54933;51.908;7.730;2022-08-30T08:11:58;101544.81;;;23.37;71.92
13709;BME280;54933;51.908;7.730;2022-08-30T08:14:24;101544.81;;;23.37;71.88
13709;BME280;54933;51.908;7.730;2022-08-30T08:16:49;101551.88;;;23.38;71.82
13709;BME280;54933;51.908;7.730;2022-08-30T08:19:14;101557.53;;;23.37;72.15
13709;BME280;54933;51.908;7.730;2022-08-30T08:21:40;101556.72;;;23.36;72.33
13709;BME280;54933;51.908;7.730;2022-08-30T08:24:06;101552.09;;;23.37;72.16
13709;BME280;54933;51.908;7.730;2022-08-30T08:26:36;101543.16;;;23.36;71.85
13709;BME280;54933;51.908;7.730;2022-08-30T08:29:02;101544.81;;;23.37;71.56
13709;BME280;54933;51.908;7.730;2022-08-30T08:31:27;101538.31;;;23.38;71.51
13709;BME280;54933;51.908;7.730;2022-08-30T08:33:54;101546.44;;;23.38;71.53
13709;BME280;54933;51.908;7.730;2022-08-30T08:36:20;101547.50;;;23.37;71.45
13709;BME280;54933;51.908;7.730;2022-08-30T08:38:45;101536.03;;;23.35;71.75
13709;BME280;54933;51.908;7.730;2022-08-30T08:43:39;101539.59;;;23.36;71.89
13709;BME280;54933;51.908;7.730;2022-08-30T08:46:15;101544.16;;;23.35;71.92
13709;BME280;54933;51.908;7.730;2022-08-30T08:48:54;101545.84;;;23.36;72.04
13709;BME280;54933;51.908;7.730;2022-08-30T08:51:25;101547.72;;;23.36;71.60
13709;BME280;54933;51.908;7.730;2022-08-30T08:57:10;101548.34;;;23.38;71.46
13709;BME280;54933;51.908;7.730;2022-08-30T08:59:36;101555.66;;;23.37;71.51
13709;BME280;54933;51.908;7.730;2022-08-30T09:02:23;101557.31;;;23.38;71.68
13709;BME280;54933;51.908;7.730;2022-08-30T09:04:50;101551.06;;;23.38;71.47
13709;BME280;54933;51.908;7.730;2022-08-30T09:07:25;101554.81;;;23.37;71.78
13709;BME280;54933;51.908;7.730;2022-08-30T09:09:52;101561.91;;;23.38;71.46
13709;BME280;54933;51.908;7.730;2022-08-30T09:12:18;101551.88;;;23.38;71.61
13709;BME280;54933;51.908;7.730;2022-08-30T09:14:52;101554.59;;;23.38;71.44
13709;BME280;54933;51.908;7.730;2022-08-30T09:17:19;101552.72;;;23.39;71.52
13709;BME280;54933;51.908;7.730;2022-08-30T09:19:56;101545.66;;;23.38;71.44
13709;BME280;54933;51.908;7.730;2022-08-30T09:25:01;101549.78;;;23.40;71.14
13709;BME280;54933;51.908;7.730;2022-08-30T09:27:34;101544.38;;;23.40;71.31
13709;BME280;54933;51.908;7.730;2022-08-30T09:30:22;101541.66;;;23.40;71.31
13709;BME280;54933;51.908;7.730;2022-08-30T09:33:00;101538.94;;;23.40;71.10
13709;BME280;54933;51.908;7.730;2022-08-30T09:35:38;101530.81;;;23.40;71.03
13709;BME280;54933;51.908;7.730;2022-08-30T09:38:17;101540.59;;;23.41;71.21
13709;BME280;54933;51.908;7.730;2022-08-30T09:40:46;101545.22;;;23.41;71.03
13709;BME280;54933;51.908;7.730;2022-08-30T09:45:43;101540.59;;;23.41;71.24
13709;BME280;54933;51.908;7.730;2022-08-30T09:53:39;101529.75;;;23.41;71.21
13709;BME280;54933;51.908;7.730;2022-08-30T09:56:17;101537.88;;;23.41;71.11
13709;BME280;54933;51.908;7.730;2022-08-30T09:58:58;101535.16;;;23.41;71.35
13709;BME280;54933;51.908;7.730;2022-08-30T10:01:30;101515.16;;;23.42;71.42
13709;BME280;54933;51.908;7.730;2022-08-30T10:04:15;101524.13;;;23.43;71.44
13709;BME280;54933;51.908;7.730;2022-08-30T10:07:07;101526.84;;;23.43;71.37
13709;BME280;54933;51.908;7.730;2022-08-30T10:09:49;101531.44;;;23.42;71.11
13709;BME280;54933;51.908;7.730;2022-08-30T10:12:29;101525.78;;;23.44;71.18
13709;BME280;54933;51.908;7.730;2022-08-30T10:15:04;101532.28;;;23.43;71.19
13709;BME280;54933;51.908;7.730;2022-08-30T10:22:51;101519.53;;;23.43;71.15
13709;BME280;54933;51.908;7.730;2022-08-30T10:25:22;101513.88;;;23.45;71.20
13709;BME280;54933;51.908;7.730;2022-08-30T10:27:55;101516.59;;;23.45;71.36
13709;BME280;54933;51.908;7.730;2022-08-30T10:30:23;101519.31;;;23.45;71.31
13709;BME280;54933;51.908;7.730;2022-08-30T10:32:59;101524.72;;;23.45;71.38
13709;BME280;54933;51.908;7.730;2022-08-30T10:35:33;101511.16;;;23.45;71.57
13709;BME280;54933;51.908;7.730;2022-08-30T10:38:08;101508.47;;;23.45;71.41
13709;BME280;54933;51.908;7.730;2022-08-30T10:40:37;101507.44;;;23.46;71.53
13709;BME280;54933;51.908;7.730;2022-08-30T10:46:10;101509.28;;;23.45;71.75
13709;BME280;54933;51.908;7.730;2022-08-30T10:48:46;101504.72;;;23.46;71.48
13709;BME280;54933;51.908;7.730;2022-08-30T10:51:31;101509.28;;;23.45;71.56
13709;BME280;54933;51.908;7.730;2022-08-30T10:54:15;101523.47;;;23.47;71.64
13709;BME280;54933;51.908;7.730;2022-08-30T10:56:42;101517.22;;;23.47;71.55
13709;BME280;54933;51.908;7.730;2022-08-30T10:59:09;101511.78;;;23.47;71.72
13709;BME280;54933;51.908;7.730;2022-08-30T11:04:25;101507.22;;;23.47;71.86
13709;BME280;54933;51.908;7.730;2022-08-30T11:07:14;101501.78;;;23.47;71.76
13709;BME280;54933;51.908;7.730;2022-08-30T11:10:03;101512.63;;;23.47;72.22
13709;BME280;54933;51.908;7.730;2022-08-30T11:12:54;101502.59;;;23.48;71.92
13709;BME280;54933;51.908;7.730;2022-08-30T11:15:25;101504.28;;;23.49;71.84
13709;BME280;54933;51.908;7.730;2022-08-30T11:20:41;101502.41;;;23.49;71.99
13709;BME280;54933;51.908;7.730;2022-08-30T11:23:30;101505.94;;;23.50;71.80
13709;BME280;54933;51.908;7.730;2022-08-30T11:26:09;101504.06;;;23.50;71.85
13709;BME280;54933;51.908;7.730;2022-08-30T11:33:52;101508.44;;;23.51;71.66
13709;BME280;54933;51.908;7.730;2022-08-30T11:42:11;101503.00;;;23.51;71.93
13709;BME280;54933;51.908;7.730;2022-08-30T11:44:37;101496.53;;;23.52;71.73
13709;BME280;54933;51.908;7.730;2022-08-30T11:47:36;101496.53;;;23.52;71.73
13709;BME280;54933;51.908;7.730;2022-08-30T11:50:14;101496.53;;;23.52;71.66
13709;BME280;54933;51.908;7.730;2022-08-30T11:52:54;101482.97;;;23.52;71.51
13709;BME280;54933;51.908;7.730;2022-08-30T11:55:39;101489.22;;;23.53;71.74
13709;BME280;54933;51.908;7.730;2022-08-30T12:00:43;101473.78;;;23.53;71.64
13709;BME280;54933;51.908;7.730;2022-08-30T12:05:46;101480.84;;;23.54;71.69
13709;BME280;54933;51.908;7.730;2022-08-30T12:10:48;101470.00;;;23.54;71.62
13709;BME280;54933;51.908;7.730;2022-08-30T12:19:32;101469.19;;;23.54;71.20
13709;BME280;54933;51.908;7.730;2022-08-30T12:21:33;101470.00;;;23.54;71.32
13709;BME280;54933;51.908;7.730;2022-08-30T12:24:05;101473.78;;;23.53;71.30
13709;BME280;54933;51.908;7.730;2022-08-30T12:26:40;101477.13;;;23.55;71.18
13709;BME280;54933;51.908;7.730;2022-08-30T12:31:31;101465.44;;;23.55;70.64
13709;BME280;54933;51.908;7.730;2022-08-30T12:34:00;101458.97;;;23.56;70.59
13709;BME280;54933;51.908;7.730;2022-08-30T12:39:25;101450.84;;;23.56;70.41
13709;BME280;54933;51.908;7.730;2022-08-30T12:41:51;101450.00;;;23.55;70.03
13709;BME280;54933;51.908;7.730;2022-08-30T12:44:23;101456.25;;;23.56;70.21
13709;BME280;54933;51.908;7.730;2022-08-30T12:46:55;101454.34;;;23.56;69.95
13709;BME280;54933;51.908;7.730;2022-08-30T12:49:23;101440.78;;;23.56;70.13
13709;BME280;54933;51.908;7.730;2022-08-30T12:51:49;101441.63;;;23.57;70.22
13709;BME280;54933;51.908;7.730;2022-08-30T12:54:23;101438.06;;;23.56;70.21
13709;BME280;54933;51.908;7.730;2022-08-30T12:56:53;101440.78;;;23.56;70.09
13709;BME280;54933;51.908;7.730;2022-08-30T12:59:48;101436.19;;;23.57;70.16
13709;BME280;54933;51.908;7.730;2022-08-30T13:02:40;101435.34;;;23.56;70.28
13709;BME280;54933;51.908;7.730;2022-08-30T13:05:26;101441.63;;;23.57;70.22
13709;BME280;54933;51.908;7.730;2022-08-30T13:07:52;101448.94;;;23.56;70.35
13709;BME280;54933;51.908;7.730;2022-08-30T13:10:31;101435.34;;;23.56;70.12
13709;BME280;54933;51.908;7.730;2022-08-30T13:12:59;101429.94;;;23.56;70.30
13709;BME280;54933;51.908;7.730;2022-08-30T13:15:33;101437.03;;;23.57;70.03
13709;BME280;54933;51.908;7.730;2022-08-30T13:18:19;101429.94;;;23.56;70.10
13709;BME280;54933;51.908;7.730;2022-08-30T13:20:48;101429.94;;;23.56;69.99
13709;BME280;54933;51.908;7.730;2022-08-30T13:23:22;101434.34;;;23.57;nan
13709;BME280;54933;51.908;7.730;2022-08-30T13:25:47;101437.03;;;23.57;70.32
13709;BME280;54933;51.908;7.730;2022-08-30T13:28:13;101435.34;;;23.56;69.88
13709;BME280;54933;51.908;7.730;2022-08-30T13:30:38;101431.63;;;23.57;69.76
13709;BME280;54933;51.908;7.730;2022-08-30T13:33:03;101433.50;;;23.57;69.87
13709;BME280;54933;51.908;7.730;2022-08-30T13:35:29;101434.34;;;23.57;69.83
13709;BME280;54933;51.908;7.730;2022-08-30T13:37:56;101427.84;;;23.58;69.85
13709;BME280;54933;51.908;7.730;2022-08-30T13:40:22;101424.28;;;23.58;69.77
13709;BME280;54933;51.908;7.730;2022-08-30T13:42:48;101427.84;;;23.58;69.79
13709;BME280;54933;51.908;7.730;2022-08-30T13:45:15;101426.19;;;23.57;69.56
13709;BME280;54933;51.908;7.730;2022-08-30T13:47:41;101416.16;;;23.58;69.71
13709;BME280;54933;51.908;7.730;2022-08-30T13:50:08;101417.00;;;23.58;69.51
13709;BME280;54933;51.908;7.730;2022-08-30T13:52:33;101419.69;;;23.58;69.73
13709;BME280;54933;51.908;7.730;2022-08-30T13:54:59;101415.34;;;23.57;69.70
13709;BME280;54933;51.908;7.730;2022-08-30T13:57:27;101413.44;;;23.58;69.70